sensor_id;sensor_type;location;lat;lon;timestamp;temperature;humidity
5196;DHT22;2617;51.006;12.436;2023-04-01T00:04:55;8.80;99.90
5196;DHT22;2617;51.006;12.436;2023-04-01T00:09:57;8.80;99.90
5196;DHT22;2617;51.006;12.436;2023-04-01T00:15:00;8.90;99.90
5196;DHT22;2617;51.006;12.436;2023-04-01T00:20:03;8.90;99.90
5196;DHT22;2617;51.006;12.436;2023-04-01T00:25:06;8.90;99.90
5196;DHT22;2617;51.006;12.436;2023-04-01T00:30:09;8.90;99.90
5196;DHT22;2617;51.006;12.436;2023-04-01T00:35:12;8.90;99.90
5196;DHT22;2617;51.006;12.436;2023-04-01T00:40:22;8.90;99.90
5196;DHT22;2617;51.006;12.436;2023-04-01T00:45:25;8.90;99.90
5196;DHT22;2617;51.006;12.436;2023-04-01T00:50:30;9.00;99.90
5196;DHT22;2617;51.006;12.436;2023-04-01T00:55:33;8.90;99.90
5196;DHT22;2617;51.006;12.436;2023-04-01T01:00:34;9.00;99.90
5196;DHT22;2617;51.006;12.436;2023-04-01T01:05:48;8.90;99.90
5196;DHT22;2617;51.006;12.436;2023-04-01T01:10:48;8.90;99.90
5196;DHT22;2617;51.006;12.436;2023-04-01T01:15:56;8.90;99.90
5196;DHT22;2617;51.006;12.436;2023-04-01T01:32:18;8.90;99.90
5196;DHT22;2617;51.006;12.436;2023-04-01T01:37:38;8.90;99.90
5196;DHT22;2617;51.006;12.436;2023-04-01T01:42:41;8.90;99.90
5196;DHT22;2617;51.006;12.436;2023-04-01T01:47:42;8.90;99.90
5196;DHT22;2617;51.006;12.436;2023-04-01T01:52:45;8.80;99.90
5196;DHT22;2617;51.006;12.436;2023-04-01T01:57:48;8.80;99.90
5196;DHT22;2617;51.006;12.436;2023-04-01T02:02:51;8.80;99.90
5196;DHT22;2617;51.006;12.436;2023-04-01T02:08:02;8.80;99.90
5196;DHT22;2617;51.006;12.436;2023-04-01T02:13:21;8.80;99.90
5196;DHT22;2617;51.006;12.436;2023-04-01T02:18:21;8.80;99.90
5196;DHT22;2617;51.006;12.436;2023-04-01T02:23:24;8.70;99.90
5196;DHT22;2617;51.006;12.436;2023-04-01T02:28:27;8.70;99.90
5196;DHT22;2617;51.006;12.436;2023-04-01T02:33:30;8.80;99.90
5196;DHT22;2617;51.006;12.436;2023-04-01T02:38:32;8.70;99.90
5196;DHT22;2617;51.006;12.436;2023-04-01T02:43:35;8.70;99.90
5196;DHT22;2617;51.006;12.436;2023-04-01T02:48:37;8.70;99.90
5196;DHT22;2617;51.006;12.436;2023-04-01T02:53:40;8.70;99.90
5196;DHT22;2617;51.006;12.436;2023-04-01T02:58:42;8.70;99.90
5196;DHT22;2617;51.006;12.436;2023-04-01T03:03:44;8.70;99.90
5196;DHT22;2617;51.006;12.436;2023-04-01T03:08:47;8.70;99.90
5196;DHT22;2617;51.006;12.436;2023-04-01T03:13:50;8.80;99.90
5196;DHT22;2617;51.006;12.436;2023-04-01T03:18:52;8.70;99.90
5196;DHT22;2617;51.006;12.436;2023-04-01T03:23:56;8.70;99.90
5196;DHT22;2617;51.006;12.436;2023-04-01T03:28:59;8.70;99.90
5196;DHT22;2617;51.006;12.436;2023-04-01T03:34:01;8.70;99.90
5196;DHT22;2617;51.006;12.436;2023-04-01T03:39:04;8.70;99.90
5196;DHT22;2617;51.006;12.436;2023-04-01T03:44:06;8.70;99.90
5196;DHT22;2617;51.006;12.436;2023-04-01T03:49:09;8.80;99.90
5196;DHT22;2617;51.006;12.436;2023-04-01T03:54:12;8.70;99.90
5196;DHT22;2617;51.006;12.436;2023-04-01T03:59:15;8.70;99.90
5196;DHT22;2617;51.006;12.436;2023-04-01T04:04:18;8.70;99.90
5196;DHT22;2617;51.006;12.436;2023-04-01T04:09:20;8.70;99.90
5196;DHT22;2617;51.006;12.436;2023-04-01T04:14:23;8.70;99.90
5196;DHT22;2617;51.006;12.436;2023-04-01T04:19:26;8.70;99.90
5196;DHT22;2617;51.006;12.436;2023-04-01T04:24:29;8.70;99.90
5196;DHT22;2617;51.006;12.436;2023-04-01T04:29:31;8.70;99.90
5196;DHT22;2617;51.006;12.436;2023-04-01T04:34:33;8.70;99.90
5196;DHT22;2617;51.006;12.436;2023-04-01T04:39:36;8.60;99.90
5196;DHT22;2617;51.006;12.436;2023-04-01T04:44:38;8.60;99.90
5196;DHT22;2617;51.006;12.436;2023-04-01T04:49:41;8.60;99.90
5196;DHT22;2617;51.006;12.436;2023-04-01T04:54:43;8.50;99.90
5196;DHT22;2617;51.006;12.436;2023-04-01T04:59:45;8.50;99.90
5196;DHT22;2617;51.006;12.436;2023-04-01T05:04:48;8.50;99.90
5196;DHT22;2617;51.006;12.436;2023-04-01T05:09:50;8.60;99.90
5196;DHT22;2617;51.006;12.436;2023-04-01T05:14:53;8.60;99.90
5196;DHT22;2617;51.006;12.436;2023-04-01T05:19:56;8.70;99.90
5196;DHT22;2617;51.006;12.436;2023-04-01T05:24:59;8.70;99.90
5196;DHT22;2617;51.006;12.436;2023-04-01T05:30:02;8.70;99.90
5196;DHT22;2617;51.006;12.436;2023-04-01T05:35:05;8.80;99.90
5196;DHT22;2617;51.006;12.436;2023-04-01T05:40:09;8.80;99.90
5196;DHT22;2617;51.006;12.436;2023-04-01T05:45:11;8.80;99.90
5196;DHT22;2617;51.006;12.436;2023-04-01T05:50:14;8.80;99.90
5196;DHT22;2617;51.006;12.436;2023-04-01T05:55:17;8.90;99.90
5196;DHT22;2617;51.006;12.436;2023-04-01T06:00:20;8.90;99.90
5196;DHT22;2617;51.006;12.436;2023-04-01T06:05:25;9.00;99.90
5196;DHT22;2617;51.006;12.436;2023-04-01T06:27:45;9.60;99.90
5196;DHT22;2617;51.006;12.436;2023-04-01T06:33:10;9.80;99.90
5196;DHT22;2617;51.006;12.436;2023-04-01T06:38:33;9.90;99.90
5196;DHT22;2617;51.006;12.436;2023-04-01T06:43:42;10.10;99.90
5196;DHT22;2617;51.006;12.436;2023-04-01T06:49:11;10.20;99.90
5196;DHT22;2617;51.006;12.436;2023-04-01T06:54:11;10.20;99.90
5196;DHT22;2617;51.006;12.436;2023-04-01T06:59:17;10.20;99.90
5196;DHT22;2617;51.006;12.436;2023-04-01T07:04:21;10.20;99.90
5196;DHT22;2617;51.006;12.436;2023-04-01T07:09:24;10.30;99.90
5196;DHT22;2617;51.006;12.436;2023-04-01T07:14:40;10.50;99.90
5196;DHT22;2617;51.006;12.436;2023-04-01T07:19:56;10.60;99.90
5196;DHT22;2617;51.006;12.436;2023-04-01T07:25:02;10.70;99.90
5196;DHT22;2617;51.006;12.436;2023-04-01T07:30:03;10.70;99.90
5196;DHT22;2617;51.006;12.436;2023-04-01T07:35:10;10.90;99.90
5196;DHT22;2617;51.006;12.436;2023-04-01T07:40:21;10.90;99.90
5196;DHT22;2617;51.006;12.436;2023-04-01T07:45:33;11.10;99.90
5196;DHT22;2617;51.006;12.436;2023-04-01T07:50:42;11.10;99.90
5196;DHT22;2617;51.006;12.436;2023-04-01T08:06:35;11.60;99.90
5196;DHT22;2617;51.006;12.436;2023-04-01T08:11:47;11.60;99.90
5196;DHT22;2617;51.006;12.436;2023-04-01T08:17:00;11.70;99.90
5196;DHT22;2617;51.006;12.436;2023-04-01T08:22:04;12.00;99.90
5196;DHT22;2617;51.006;12.436;2023-04-01T08:27:27;12.00;99.90
5196;DHT22;2617;51.006;12.436;2023-04-01T08:32:38;12.10;99.90
5196;DHT22;2617;51.006;12.436;2023-04-01T08:37:40;12.10;99.90
5196;DHT22;2617;51.006;12.436;2023-04-01T08:48:30;12.50;99.90
5196;DHT22;2617;51.006;12.436;2023-04-01T08:59:11;12.90;99.90
5196;DHT22;2617;51.006;12.436;2023-04-01T09:04:38;13.10;99.90
5196;DHT22;2617;51.006;12.436;2023-04-01T09:10:00;13.20;99.90
5196;DHT22;2617;51.006;12.436;2023-04-01T09:20:55;13.20;99.90
5196;DHT22;2617;51.006;12.436;2023-04-01T09:26:33;13.20;99.90
5196;DHT22;2617;51.006;12.436;2023-04-01T09:37:10;13.20;99.90
5196;DHT22;2617;51.006;12.436;2023-04-01T10:15:27;13.80;99.90
5196;DHT22;2617;51.006;12.436;2023-04-01T10:20:58;13.80;99.90
5196;DHT22;2617;51.006;12.436;2023-04-01T10:26:12;13.80;99.90
5196;DHT22;2617;51.006;12.436;2023-04-01T10:31:23;13.80;99.90
5196;DHT22;2617;51.006;12.436;2023-04-01T10:36:47;13.80;99.90
5196;DHT22;2617;51.006;12.436;2023-04-01T10:47:39;13.70;99.90
5196;DHT22;2617;51.006;12.436;2023-04-01T10:53:11;13.90;99.90
5196;DHT22;2617;51.006;12.436;2023-04-01T11:09:38;14.10;99.90
5196;DHT22;2617;51.006;12.436;2023-04-01T11:20:23;14.40;99.90
5196;DHT22;2617;51.006;12.436;2023-04-01T11:36:19;14.10;99.90
5196;DHT22;2617;51.006;12.436;2023-04-01T11:41:26;14.10;99.90
5196;DHT22;2617;51.006;12.436;2023-04-01T11:46:37;14.30;99.90
5196;DHT22;2617;51.006;12.436;2023-04-01T11:51:50;14.40;99.80
5196;DHT22;2617;51.006;12.436;2023-04-01T11:56:58;14.20;99.90
5196;DHT22;2617;51.006;12.436;2023-04-01T12:07:42;13.70;99.90
5196;DHT22;2617;51.006;12.436;2023-04-01T12:12:42;13.10;99.90
5196;DHT22;2617;51.006;12.436;2023-04-01T12:17:59;12.80;99.90
5196;DHT22;2617;51.006;12.436;2023-04-01T12:23:21;12.60;99.90
5196;DHT22;2617;51.006;12.436;2023-04-01T12:28:41;12.30;99.90
5196;DHT22;2617;51.006;12.436;2023-04-01T12:33:52;12.20;99.90
5196;DHT22;2617;51.006;12.436;2023-04-01T12:39:22;12.10;99.90
5196;DHT22;2617;51.006;12.436;2023-04-01T12:44:33;12.10;99.90
5196;DHT22;2617;51.006;12.436;2023-04-01T12:55:18;12.10;99.90
5196;DHT22;2617;51.006;12.436;2023-04-01T13:00:30;12.00;99.90
5196;DHT22;2617;51.006;12.436;2023-04-01T13:11:32;12.10;99.90
5196;DHT22;2617;51.006;12.436;2023-04-01T13:16:38;12.10;99.90
5196;DHT22;2617;51.006;12.436;2023-04-01T13:21:58;11.90;99.90
5196;DHT22;2617;51.006;12.436;2023-04-01T13:27:13;11.80;99.90
5196;DHT22;2617;51.006;12.436;2023-04-01T13:32:21;11.90;99.90
5196;DHT22;2617;51.006;12.436;2023-04-01T13:37:32;13.00;99.90
5196;DHT22;2617;51.006;12.436;2023-04-01T13:42:57;13.00;99.90
5196;DHT22;2617;51.006;12.436;2023-04-01T13:48:25;14.60;99.90
5196;DHT22;2617;51.006;12.436;2023-04-01T13:53:51;14.90;99.90
5196;DHT22;2617;51.006;12.436;2023-04-01T13:59:15;14.80;99.90
5196;DHT22;2617;51.006;12.436;2023-04-01T14:04:53;15.20;99.90
5196;DHT22;2617;51.006;12.436;2023-04-01T14:10:04;14.80;99.90
5196;DHT22;2617;51.006;12.436;2023-04-01T14:15:33;14.80;99.90
5196;DHT22;2617;51.006;12.436;2023-04-01T14:20:41;14.80;99.90
5196;DHT22;2617;51.006;12.436;2023-04-01T14:26:21;14.70;99.90
5196;DHT22;2617;51.006;12.436;2023-04-01T14:31:34;13.90;99.90
5196;DHT22;2617;51.006;12.436;2023-04-01T14:36:50;13.90;99.90
5196;DHT22;2617;51.006;12.436;2023-04-01T14:42:03;13.30;99.90
5196;DHT22;2617;51.006;12.436;2023-04-01T14:47:20;12.90;99.90
5196;DHT22;2617;51.006;12.436;2023-04-01T14:52:35;12.80;99.90
5196;DHT22;2617;51.006;12.436;2023-04-01T14:57:37;12.40;99.90
5196;DHT22;2617;51.006;12.436;2023-04-01T15:08:00;12.30;99.90
5196;DHT22;2617;51.006;12.436;2023-04-01T15:23:45;12.90;99.90
5196;DHT22;2617;51.006;12.436;2023-04-01T15:29:19;12.90;99.90
5196;DHT22;2617;51.006;12.436;2023-04-01T15:34:40;13.20;99.90
5196;DHT22;2617;51.006;12.436;2023-04-01T15:39:55;13.40;99.90
5196;DHT22;2617;51.006;12.436;2023-04-01T15:45:01;13.00;99.90
5196;DHT22;2617;51.006;12.436;2023-04-01T15:50:34;12.60;99.90
5196;DHT22;2617;51.006;12.436;2023-04-01T15:55:56;12.30;99.90
5196;DHT22;2617;51.006;12.436;2023-04-01T16:01:09;12.20;99.90
5196;DHT22;2617;51.006;12.436;2023-04-01T16:06:15;12.10;99.90
5196;DHT22;2617;51.006;12.436;2023-04-01T16:11:31;12.10;99.90
5196;DHT22;2617;51.006;12.436;2023-04-01T16:27:44;11.80;99.90
5196;DHT22;2617;51.006;12.436;2023-04-01T16:32:50;11.80;99.90
5196;DHT22;2617;51.006;12.436;2023-04-01T16:37:54;11.70;99.90
5196;DHT22;2617;51.006;12.436;2023-04-01T16:43:16;11.60;99.90
5196;DHT22;2617;51.006;12.436;2023-04-01T16:48:20;11.60;99.90
5196;DHT22;2617;51.006;12.436;2023-04-01T16:53:37;11.50;99.90
5196;DHT22;2617;51.006;12.436;2023-04-01T17:04:05;11.40;99.90
5196;DHT22;2617;51.006;12.436;2023-04-01T17:09:22;11.00;99.90
5196;DHT22;2617;51.006;12.436;2023-04-01T17:14:32;11.00;99.90
5196;DHT22;2617;51.006;12.436;2023-04-01T17:19:56;10.80;99.90
5196;DHT22;2617;51.006;12.436;2023-04-01T17:30:46;10.30;99.90
5196;DHT22;2617;51.006;12.436;2023-04-01T17:36:08;10.30;99.90
5196;DHT22;2617;51.006;12.436;2023-04-01T17:46:56;9.80;99.90
5196;DHT22;2617;51.006;12.436;2023-04-01T17:52:19;9.80;99.90
5196;DHT22;2617;51.006;12.436;2023-04-01T17:57:39;9.70;99.90
5196;DHT22;2617;51.006;12.436;2023-04-01T18:08:15;9.40;99.90
5196;DHT22;2617;51.006;12.436;2023-04-01T18:18:53;9.20;99.90
5196;DHT22;2617;51.006;12.436;2023-04-01T18:24:11;9.10;99.90
5196;DHT22;2617;51.006;12.436;2023-04-01T18:29:25;9.10;99.90
5196;DHT22;2617;51.006;12.436;2023-04-01T18:40:17;9.00;99.90
5196;DHT22;2617;51.006;12.436;2023-04-01T18:45:27;9.00;99.90
5196;DHT22;2617;51.006;12.436;2023-04-01T18:50:55;8.90;99.90
5196;DHT22;2617;51.006;12.436;2023-04-01T18:56:05;8.90;99.90
5196;DHT22;2617;51.006;12.436;2023-04-01T19:01:19;8.90;99.90
5196;DHT22;2617;51.006;12.436;2023-04-01T19:06:28;8.80;99.90
5196;DHT22;2617;51.006;12.436;2023-04-01T19:11:34;8.80;99.90
5196;DHT22;2617;51.006;12.436;2023-04-01T19:16:41;8.90;99.90
5196;DHT22;2617;51.006;12.436;2023-04-01T19:21:42;8.90;99.90
5196;DHT22;2617;51.006;12.436;2023-04-01T19:32:27;8.90;99.90
5196;DHT22;2617;51.006;12.436;2023-04-01T19:37:33;8.80;99.90
5196;DHT22;2617;51.006;12.436;2023-04-01T19:42:48;8.80;99.90
5196;DHT22;2617;51.006;12.436;2023-04-01T19:53:45;8.80;99.90
5196;DHT22;2617;51.006;12.436;2023-04-01T20:04:17;8.80;99.90
5196;DHT22;2617;51.006;12.436;2023-04-01T20:09:34;8.80;99.90
5196;DHT22;2617;51.006;12.436;2023-04-01T20:14:49;8.80;99.90
5196;DHT22;2617;51.006;12.436;2023-04-01T20:19:57;8.80;99.90
5196;DHT22;2617;51.006;12.436;2023-04-01T20:25:05;8.80;99.90
5196;DHT22;2617;51.006;12.436;2023-04-01T20:36:06;8.80;99.90
5196;DHT22;2617;51.006;12.436;2023-04-01T20:41:23;8.70;99.90
5196;DHT22;2617;51.006;12.436;2023-04-01T20:46:48;8.70;99.90
5196;DHT22;2617;51.006;12.436;2023-04-01T20:51:59;8.70;99.90
5196;DHT22;2617;51.006;12.436;2023-04-01T20:57:21;8.60;99.90
5196;DHT22;2617;51.006;12.436;2023-04-01T21:02:41;8.50;99.90
5196;DHT22;2617;51.006;12.436;2023-04-01T21:07:46;8.50;99.90
5196;DHT22;2617;51.006;12.436;2023-04-01T21:18:24;8.50;99.90
5196;DHT22;2617;51.006;12.436;2023-04-01T21:23:38;8.50;99.90
5196;DHT22;2617;51.006;12.436;2023-04-01T21:34:42;8.50;99.90
5196;DHT22;2617;51.006;12.436;2023-04-01T21:50:47;8.30;99.90
5196;DHT22;2617;51.006;12.436;2023-04-01T22:07:08;7.90;99.90
5196;DHT22;2617;51.006;12.436;2023-04-01T22:12:15;7.60;99.90
5196;DHT22;2617;51.006;12.436;2023-04-01T22:17:24;7.60;99.90
5196;DHT22;2617;51.006;12.436;2023-04-01T22:22:47;7.50;99.90
5196;DHT22;2617;51.006;12.436;2023-04-01T22:27:50;7.40;99.90
5196;DHT22;2617;51.006;12.436;2023-04-01T22:33:02;7.30;99.90
5196;DHT22;2617;51.006;12.436;2023-04-01T22:43:36;7.10;99.90
5196;DHT22;2617;51.006;12.436;2023-04-01T22:48:44;7.00;99.90
5196;DHT22;2617;51.006;12.436;2023-04-01T22:59:02;6.90;99.90
5196;DHT22;2617;51.006;12.436;2023-04-01T23:04:17;6.90;99.90
5196;DHT22;2617;51.006;12.436;2023-04-01T23:09:23;6.80;99.90
5196;DHT22;2617;51.006;12.436;2023-04-01T23:14:32;6.80;99.90
5196;DHT22;2617;51.006;12.436;2023-04-01T23:20:03;6.60;99.90
5196;DHT22;2617;51.006;12.436;2023-04-01T23:25:16;6.50;99.90
5196;DHT22;2617;51.006;12.436;2023-04-01T23:35:47;6.30;99.90
5196;DHT22;2617;51.006;12.436;2023-04-01T23:40:49;6.10;99.90
5196;DHT22;2617;51.006;12.436;2023-04-01T23:45:56;6.00;99.90
5196;DHT22;2617;51.006;12.436;2023-04-01T23:50:58;6.00;99.90
5196;DHT22;2617;51.006;12.436;2023-04-01T23:56:01;5.90;99.90
